This is the latest recevied weather packets stored in our database for station/object KK6LZB. If no packets are shown the sender has not sent any weather packets the latest 10 day(s).
| Time | Temp. | Humidity | Pressure | Rain* | Wind** | Luminosity | Snow |
|---|---|---|---|---|---|---|---|
| 1778010076 | 20° C | 62% | 1017.4 hPa | 0 mm | - | 770 W/m² | - |
| 1778009773 | 20.56° C | 61% | 1017.4 hPa | 0 mm | - | 752 W/m² | - |
| 1778009470 | 18.89° C | 66% | 1017.4 hPa | 0 mm | - | 744 W/m² | - |
| 1778009169 | 18.89° C | 64% | 1017.3 hPa | 0 mm | - | 741 W/m² | - |
| 1778008866 | 19.44° C | 62% | 1017.4 hPa | 0 mm | - | 734 W/m² | - |
| 1778008564 | 19.44° C | 62% | 1017.5 hPa | 0 mm | - | 728 W/m² | - |
| 1778008261 | 18.89° C | 66% | 1017.5 hPa | 0 mm | - | 725 W/m² | - |
| 1778007956 | 19.44° C | 63% | 1017.7 hPa | 0 mm | - | 725 W/m² | - |
| 1778007652 | 20° C | 62% | 1017.5 hPa | 0 mm | - | 719 W/m² | - |
| 1778007349 | 19.44° C | 64% | 1017.4 hPa | 0 mm | - | 715 W/m² | - |
| 1778007045 | 19.44° C | 62% | 1017.6 hPa | 0 mm | - | 713 W/m² | - |
| 1778006742 | 19.44° C | 59% | 1017.4 hPa | 0 mm | - | 709 W/m² | - |
| 1778006439 | 19.44° C | 61% | 1017.4 hPa | 0 mm | - | 701 W/m² | - |
| 1778006135 | 20° C | 60% | 1017.5 hPa | 0 mm | - | 702 W/m² | - |
| 1778005833 | 18.89° C | 64% | 1017.4 hPa | 0 mm | - | 714 W/m² | - |
| 1778005529 | 18.89° C | 66% | 1017.4 hPa | 0 mm | - | 698 W/m² | - |
| 1778005226 | 18.89° C | 66% | 1017.4 hPa | 0 mm | - | 436 W/m² | - |
| 1778004923 | 19.44° C | 63% | 1017.4 hPa | 0 mm | - | 510 W/m² | - |
| 1778004621 | 18.89° C | 66% | 1017.3 hPa | 0 mm | - | 817 W/m² | - |
| 1778004316 | 19.44° C | 66% | 1017.3 hPa | 0 mm | - | 477 W/m² | - |
| 1778004015 | 19.44° C | 64% | 1017.3 hPa | 0 mm | - | 827 W/m² | - |
| 1778003709 | 18.89° C | 62% | 1017.2 hPa | 0 mm | - | 521 W/m² | - |
| 1778003406 | 18.89° C | 64% | 1017.3 hPa | 0 mm | - | 313 W/m² | - |
| 1778003103 | 18.33° C | 64% | 1017.2 hPa | 0 mm | - | 471 W/m² | - |
| 1778002799 | 17.78° C | 65% | 1017.2 hPa | 0 mm | - | 390 W/m² | - |
* Rain latest hour (hover to see other rain measurements)
** Current wind speed in m/s (hover to see current wind gust speed)